Time;durP1;ratioP1;P1;durP2;ratioP2;P2;SDS_P1;SDS_P2;PMS_P1;PMS_P2;Temp;Humidity;BMP_temperature;BMP_pressure;BME280_temperature;BME280_humidity;BME280_pressure;Samples;Min_cycle;Max_cycle;Signal;HPM_P1;HPM_P2
2021/11/10 00:01:44;;;;;;;7.17;4.97;;;5.00;81.90;;;;;;5036489;28;20197;-91
2021/11/10 00:04:10;;;;;;;6.20;4.67;;;5.10;80.70;;;;;;5040116;28;20676;-91
2021/11/10 00:06:36;;;;;;;6.10;5.47;;;5.10;80.30;;;;;;5040699;28;20189;-91
2021/11/10 00:09:06;;;;;;;5.80;4.97;;;5.10;79.10;;;;;;5041802;28;20212;-93
2021/11/10 00:11:32;;;;;;;5.57;4.33;;;5.10;79.50;;;;;;5006865;28;20272;-94
2021/11/10 00:13:58;;;;;;;5.30;4.80;;;5.00;78.40;;;;;;5020787;28;20208;-93
2021/11/10 00:16:25;;;;;;;7.37;5.40;;;4.90;80.20;;;;;;5024391;28;20299;-94
2021/11/10 00:18:51;;;;;;;5.17;4.67;;;5.00;80.20;;;;;;5024194;28;20213;-93
2021/11/10 00:21:19;;;;;;;5.13;4.50;;;5.00;79.60;;;;;;5007046;28;20185;-93
2021/11/10 00:23:45;;;;;;;5.47;4.30;;;5.10;79.50;;;;;;5020523;28;20250;-93
2021/11/10 00:26:11;;;;;;;6.50;4.77;;;5.00;79.60;;;;;;5024747;28;20216;-93
2021/11/10 00:28:37;;;;;;;5.50;4.50;;;5.10;80.00;;;;;;5020906;28;20200;-93
2021/11/10 00:31:02;;;;;;;5.40;4.80;;;5.20;79.60;;;;;;5007136;28;20296;-93
2021/11/10 00:33:28;;;;;;;6.17;4.87;;;5.20;79.40;;;;;;5042623;28;20223;-93
2021/11/10 00:35:54;;;;;;;5.60;4.60;;;5.10;79.40;;;;;;5023739;28;20188;-93
2021/11/10 00:38:20;;;;;;;5.57;5.03;;;5.10;79.00;;;;;;5037142;28;20195;-92
2021/11/10 00:40:46;;;;;;;5.57;4.83;;;5.10;78.60;;;;;;4999657;28;20200;-94
2021/11/10 00:43:12;;;;;;;6.70;4.30;;;5.10;78.70;;;;;;5026564;28;20266;-93
2021/11/10 00:45:38;;;;;;;5.10;4.60;;;5.00;78.60;;;;;;5041030;28;20185;-93
2021/11/10 00:48:05;;;;;;;5.00;4.57;;;5.00;77.70;;;;;;5033005;28;20195;-93
2021/11/10 00:50:32;;;;;;;7.73;5.10;;;4.80;77.90;;;;;;5041761;28;20189;-93
2021/11/10 00:52:58;;;;;;;7.73;5.27;;;4.60;79.70;;;;;;5020667;28;20201;-94
2021/11/10 00:55:25;;;;;;;5.07;4.43;;;4.60;80.00;;;;;;5022931;28;20613;-93
2021/11/10 00:57:51;;;;;;;7.07;4.80;;;4.70;78.80;;;;;;5007330;28;20219;-93
2021/11/10 01:00:18;;;;;;;5.20;4.50;;;4.60;80.50;;;;;;5008011;28;20271;-93
2021/11/10 01:02:44;;;;;;;8.57;4.83;;;4.70;80.50;;;;;;5040740;28;20232;-94
2021/11/10 01:05:11;;;;;;;6.30;4.80;;;4.80;79.90;;;;;;5039067;28;20262;-93
2021/11/10 01:07:37;;;;;;;6.03;5.27;;;4.80;80.70;;;;;;5039660;28;20699;-92
2021/11/10 01:10:04;;;;;;;5.77;4.57;;;4.80;80.80;;;;;;5021672;28;20607;-93
2021/11/10 01:12:30;;;;;;;7.77;4.70;;;4.90;79.80;;;;;;5023203;28;20224;-93
2021/11/10 01:14:57;;;;;;;9.70;6.03;;;4.90;79.90;;;;;;5041177;28;20230;-94
2021/11/10 01:17:24;;;;;;;7.77;5.13;;;4.90;79.80;;;;;;5023365;28;20192;-93
2021/11/10 01:19:50;;;;;;;5.50;5.00;;;4.90;79.70;;;;;;5040615;28;20189;-93
2021/11/10 01:22:16;;;;;;;6.53;5.43;;;4.90;79.30;;;;;;5022830;28;20213;-93
2021/11/10 01:24:42;;;;;;;6.27;4.90;;;4.90;79.30;;;;;;5041919;28;20733;-93
2021/11/10 01:27:09;;;;;;;5.93;4.70;;;4.90;79.20;;;;;;5026756;28;20265;-93
2021/11/10 01:29:36;;;;;;;5.30;4.43;;;4.90;78.60;;;;;;5044317;28;20197;-93
2021/11/10 01:32:03;;;;;;;5.67;4.47;;;4.80;78.90;;;;;;5023921;28;20225;-92
2021/11/10 01:34:28;;;;;;;5.40;4.70;;;4.80;78.80;;;;;;5042632;28;20181;-92
2021/11/10 01:36:54;;;;;;;5.07;4.57;;;4.80;78.90;;;;;;5044320;28;20247;-94
2021/11/10 01:39:22;;;;;;;5.50;4.80;;;4.80;78.40;;;;;;5026626;28;20243;-93
2021/11/10 01:41:50;;;;;;;5.07;4.20;;;4.80;78.00;;;;;;5041038;28;20193;-93
2021/11/10 01:44:19;;;;;;;5.63;5.10;;;4.80;77.80;;;;;;5026838;28;20189;-93
2021/11/10 01:46:45;;;;;;;6.67;4.70;;;4.70;77.60;;;;;;5025705;28;20707;-94
2021/11/10 01:49:11;;;;;;;6.03;4.57;;;4.60;79.10;;;;;;5013358;28;20200;-93
2021/11/10 01:51:44;;;;;;;5.03;4.50;;;4.60;79.80;;;;;;5044445;28;20217;-93
2021/11/10 01:54:14;;;;;;;4.87;4.43;;;4.60;79.30;;;;;;5044108;28;20195;-94
2021/11/10 01:56:40;;;;;;;5.00;4.57;;;4.60;79.40;;;;;;5042082;28;20235;-93
2021/11/10 01:59:06;;;;;;;6.13;5.10;;;4.60;79.40;;;;;;5044274;28;20684;-93
2021/11/10 02:01:41;;;;;;;6.20;5.27;;;4.60;78.70;;;;;;5010134;28;20319;-92
2021/11/10 02:04:07;;;;;;;5.73;5.07;;;4.50;79.10;;;;;;5043872;28;20196;-92
2021/11/10 02:06:33;;;;;;;5.63;5.13;;;4.50;79.70;;;;;;5026529;28;20342;-92
2021/11/10 02:08:58;;;;;;;6.30;5.20;;;4.50;80.00;;;;;;5021848;28;20201;-92
2021/11/10 02:11:25;;;;;;;6.60;5.37;;;4.50;80.60;;;;;;5042557;28;20195;-91
2021/11/10 02:13:51;;;;;;;5.47;4.93;;;4.50;80.60;;;;;;5016867;28;20240;-93
2021/11/10 02:16:17;;;;;;;5.77;5.23;;;4.50;80.30;;;;;;5008964;28;20193;-92
2021/11/10 02:18:42;;;;;;;6.80;5.67;;;4.50;79.70;;;;;;5011881;28;20185;-92
2021/11/10 02:21:10;;;;;;;6.67;5.30;;;4.50;80.60;;;;;;5042996;28;20243;-93
2021/11/10 02:23:35;;;;;;;7.97;6.10;;;4.60;80.70;;;;;;5008596;28;20221;-92
2021/11/10 02:26:04;;;;;;;6.87;5.50;;;4.50;80.60;;;;;;5022802;28;20191;-92
2021/11/10 02:28:30;;;;;;;5.47;4.97;;;4.50;79.70;;;;;;5020916;28;20208;-93
2021/11/10 02:30:56;;;;;;;7.73;5.20;;;4.50;79.70;;;;;;5004669;28;20205;-93
2021/11/10 02:33:28;;;;;;;6.27;5.03;;;4.30;78.60;;;;;;5011091;28;20204;-92
2021/11/10 02:36:03;;;;;;;6.97;5.63;;;4.30;80.00;;;;;;5028465;28;20623;-92
2021/11/10 02:38:29;;;;;;;6.50;5.27;;;4.30;78.80;;;;;;5036680;28;20180;-92
2021/11/10 02:40:57;;;;;;;9.30;5.30;;;4.30;80.40;;;;;;5017686;28;20185;-93
2021/11/10 02:43:24;;;;;;;7.77;4.83;;;4.30;80.20;;;;;;5037387;28;20208;-92
2021/11/10 02:45:49;;;;;;;9.77;5.27;;;4.30;80.40;;;;;;5038601;28;20197;-93
2021/11/10 02:48:16;;;;;;;7.30;5.07;;;4.40;80.30;;;;;;5021496;28;20201;-92
2021/11/10 02:50:43;;;;;;;6.07;4.83;;;4.40;80.10;;;;;;5038787;28;20209;-92
2021/11/10 02:53:09;;;;;;;7.17;4.93;;;4.50;79.70;;;;;;5031969;28;20243;-93
2021/11/10 02:55:35;;;;;;;5.10;4.60;;;4.40;78.40;;;;;;5038377;28;20208;-92
2021/11/10 02:58:02;;;;;;;6.80;5.20;;;4.30;79.50;;;;;;5019651;28;20200;-92
2021/11/10 03:00:28;;;;;;;7.27;4.97;;;4.30;79.60;;;;;;5035424;28;20200;-92
2021/11/10 03:02:55;;;;;;;6.17;5.30;;;4.30;79.80;;;;;;5018716;28;20224;-91
2021/11/10 03:05:22;;;;;;;5.47;4.97;;;4.30;80.00;;;;;;5008614;28;20188;-92
2021/11/10 03:07:48;;;;;;;5.90;5.30;;;4.40;79.90;;;;;;5020995;28;20209;-92
2021/11/10 03:10:15;;;;;;;6.17;5.57;;;4.30;79.00;;;;;;5038121;28;20209;-93
2021/11/10 03:12:41;;;;;;;5.30;4.80;;;4.30;79.20;;;;;;5020506;28;20213;-92
2021/11/10 03:15:08;;;;;;;6.10;5.17;;;4.30;79.10;;;;;;5004309;28;20284;-92
2021/11/10 03:17:34;;;;;;;6.30;5.70;;;4.40;79.10;;;;;;5020242;28;20246;-92
2021/11/10 03:20:02;;;;;;;6.00;5.40;;;4.40;79.20;;;;;;5020397;28;20188;-92
2021/11/10 03:22:28;;;;;;;5.83;5.00;;;4.40;78.40;;;;;;5036707;28;20232;-92
2021/11/10 03:24:55;;;;;;;6.33;4.90;;;4.40;78.60;;;;;;5017730;28;20224;-92
2021/11/10 03:27:21;;;;;;;5.87;4.97;;;4.30;77.70;;;;;;5018435;28;20298;-92
2021/11/10 03:29:51;;;;;;;6.33;5.50;;;4.20;79.00;;;;;;5036386;28;20213;-93
2021/11/10 03:32:18;;;;;;;8.37;6.63;;;4.10;79.50;;;;;;5020623;28;20231;-92
2021/11/10 03:34:46;;;;;;;7.73;6.40;;;4.10;81.70;;;;;;5019594;28;20531;-93
2021/11/10 03:37:12;;;;;;;7.23;6.27;;;4.00;82.70;;;;;;5021116;28;20177;-93
2021/11/10 03:39:38;;;;;;;29.63;7.63;;;3.90;85.00;;;;;;5011246;28;20683;-93
2021/11/10 03:42:04;;;;;;;6.10;5.60;;;3.90;85.80;;;;;;4995799;28;20216;-93
2021/11/10 03:44:30;;;;;;;6.03;5.50;;;3.90;83.90;;;;;;5020040;28;20183;-93
2021/11/10 03:46:56;;;;;;;7.13;5.77;;;3.70;82.40;;;;;;5007545;28;20193;-92
2021/11/10 03:49:23;;;;;;;7.60;6.50;;;3.70;83.80;;;;;;5019564;28;20304;-93
2021/11/10 03:51:49;;;;;;;7.90;6.93;;;3.80;85.10;;;;;;5019930;28;20235;-94
2021/11/10 03:54:15;;;;;;;7.63;6.70;;;3.80;84.90;;;;;;5019419;28;20185;-94
2021/11/10 03:56:42;;;;;;;7.17;6.43;;;3.90;85.60;;;;;;5037340;28;20189;-93
2021/11/10 03:59:08;;;;;;;8.10;5.90;;;3.90;84.40;;;;;;5036634;28;20225;-93
2021/11/10 04:01:34;;;;;;;6.47;5.83;;;3.90;83.30;;;;;;5005765;28;20417;-93
2021/11/10 04:04:00;;;;;;;7.90;6.20;;;4.00;82.20;;;;;;5020635;28;20350;-93
2021/11/10 04:06:26;;;;;;;6.70;6.00;;;4.00;82.50;;;;;;5018144;28;20193;-93
2021/11/10 04:08:54;;;;;;;7.87;6.17;;;3.90;82.20;;;;;;5018448;28;20248;-93
2021/11/10 04:11:20;;;;;;;8.33;6.50;;;3.90;82.70;;;;;;5023330;28;20311;-92
2021/11/10 04:13:47;;;;;;;7.27;6.10;;;4.00;82.20;;;;;;5037030;28;20209;-93
2021/11/10 04:16:13;;;;;;;6.60;5.90;;;4.00;81.40;;;;;;5037368;28;20248;-92
2021/11/10 04:18:39;;;;;;;6.87;5.50;;;4.00;81.40;;;;;;5034561;28;20215;-92
2021/11/10 04:21:06;;;;;;;6.20;5.60;;;4.00;81.40;;;;;;5036869;28;20189;-93
2021/11/10 04:23:33;;;;;;;7.50;6.67;;;4.00;81.20;;;;;;5020853;28;20218;-93
2021/11/10 04:26:00;;;;;;;6.07;5.47;;;4.00;81.10;;;;;;5003619;28;20197;-93
2021/11/10 04:28:26;;;;;;;6.53;5.83;;;4.00;80.70;;;;;;5023811;28;20196;-92
2021/11/10 04:30:53;;;;;;;6.10;5.50;;;4.00;80.40;;;;;;5038624;28;20802;-92
2021/11/10 04:33:20;;;;;;;8.53;5.60;;;4.00;80.20;;;;;;5005827;28;20216;-93
2021/11/10 04:35:47;;;;;;;7.23;6.00;;;3.90;80.20;;;;;;5017570;28;20205;-93
2021/11/10 04:38:13;;;;;;;6.23;5.43;;;3.90;80.00;;;;;;5031404;28;20185;-93
2021/11/10 04:40:39;;;;;;;6.50;5.70;;;3.90;80.60;;;;;;5020918;28;20240;-93
2021/11/10 04:43:05;;;;;;;8.37;5.70;;;3.90;80.00;;;;;;5020892;28;20710;-93
2021/11/10 04:45:36;;;;;;;7.53;6.00;;;3.80;79.00;;;;;;5036045;28;20189;-93
2021/11/10 04:48:02;;;;;;;8.43;6.10;;;3.60;80.00;;;;;;5033648;28;20195;-93
2021/11/10 04:50:28;;;;;;;7.47;6.27;;;3.40;80.80;;;;;;5020982;28;20212;-93
2021/11/10 04:52:54;;;;;;;6.93;6.23;;;3.40;80.90;;;;;;5021504;28;20220;-93
2021/11/10 04:55:20;;;;;;;7.47;5.83;;;3.10;81.10;;;;;;5037734;28;20212;-92
2021/11/10 04:57:45;;;;;;;8.97;6.13;;;2.90;82.40;;;;;;5021668;28;20189;-93
2021/11/10 05:00:12;;;;;;;7.23;5.90;;;2.70;82.90;;;;;;5021558;28;20189;-93
2021/11/10 05:02:39;;;;;;;9.53;5.83;;;2.90;85.20;;;;;;5026413;28;20258;-93
2021/11/10 05:05:06;;;;;;;6.73;6.13;;;3.10;85.10;;;;;;5024675;28;20211;-92
2021/11/10 05:07:32;;;;;;;8.70;6.30;;;3.20;83.90;;;;;;5040705;28;20208;-93
2021/11/10 05:09:58;;;;;;;9.40;6.97;;;3.30;83.70;;;;;;5039641;28;20610;-93
2021/11/10 05:12:24;;;;;;;7.20;6.50;;;3.40;82.60;;;;;;5023124;28;20200;-93
2021/11/10 05:14:55;;;;;;;7.83;6.50;;;3.50;82.90;;;;;;5020214;28;20561;-93
2021/11/10 05:17:22;;;;;;;7.20;6.50;;;3.50;82.30;;;;;;5023745;28;20185;-93
2021/11/10 05:19:48;;;;;;;8.07;7.27;;;3.50;82.50;;;;;;5038560;28;20208;-93
2021/11/10 05:22:14;;;;;;;8.50;7.67;;;3.50;82.40;;;;;;5022738;28;20680;-93
2021/11/10 05:24:40;;;;;;;7.30;6.67;;;3.50;83.50;;;;;;5010781;28;20205;-89
2021/11/10 05:27:06;;;;;;;6.70;5.87;;;3.50;83.00;;;;;;5049760;28;20559;-89
2021/11/10 05:29:32;;;;;;;6.33;5.73;;;3.50;82.50;;;;;;5037876;28;20232;-90
2021/11/10 05:31:58;;;;;;;14.77;6.90;;;3.50;82.10;;;;;;5038125;28;20759;-89
2021/11/10 05:34:23;;;;;;;6.63;5.93;;;3.50;80.80;;;;;;5023248;28;20261;-89
2021/11/10 05:36:49;;;;;;;9.10;6.20;;;3.60;81.40;;;;;;5004705;28;20687;-88
2021/11/10 05:39:17;;;;;;;7.50;6.70;;;3.60;81.10;;;;;;5039793;28;20635;-89
2021/11/10 05:41:44;;;;;;;7.23;6.23;;;3.60;81.50;;;;;;5019226;28;20296;-89
2021/11/10 05:44:11;;;;;;;7.60;6.57;;;3.60;80.90;;;;;;5020784;28;20691;-89
2021/11/10 05:46:37;;;;;;;9.90;6.80;;;3.50;80.10;;;;;;5022709;28;20204;-89
2021/11/10 05:49:03;;;;;;;6.87;6.13;;;3.40;81.50;;;;;;5038575;28;20201;-89
2021/11/10 05:51:29;;;;;;;7.40;6.70;;;3.40;82.20;;;;;;5036411;28;20201;-89
2021/11/10 05:53:55;;;;;;;7.13;6.43;;;3.20;81.40;;;;;;5036855;28;20224;-88
2021/11/10 05:56:22;;;;;;;6.83;6.20;;;2.90;82.00;;;;;;5021610;28;20287;-90
2021/11/10 05:58:49;;;;;;;5.97;5.37;;;2.60;83.30;;;;;;5038924;28;20224;-89
2021/11/10 06:01:16;;;;;;;8.93;5.97;;;2.60;85.30;;;;;;5031016;28;20276;-89
2021/11/10 06:03:42;;;;;;;6.70;5.80;;;2.70;85.60;;;;;;5037400;28;20223;-89
2021/11/10 06:06:07;;;;;;;6.80;6.00;;;2.60;85.20;;;;;;5017381;28;20189;-89
2021/11/10 06:08:39;;;;;;;8.03;5.57;;;2.70;86.00;;;;;;5031160;28;20460;-89
2021/11/10 06:11:06;;;;;;;7.40;5.63;;;2.80;85.20;;;;;;5020748;28;20270;-89
2021/11/10 06:13:32;;;;;;;6.93;6.13;;;3.00;84.50;;;;;;5035490;28;20236;-89
2021/11/10 06:15:58;;;;;;;6.50;5.77;;;3.00;83.70;;;;;;5037104;28;20185;-88
2021/11/10 06:18:24;;;;;;;7.47;5.53;;;3.10;83.60;;;;;;5035371;28;20571;-90
2021/11/10 06:20:50;;;;;;;13.30;6.23;;;3.10;83.20;;;;;;5037953;28;20284;-90
2021/11/10 06:23:16;;;;;;;7.23;5.77;;;3.20;82.60;;;;;;5035993;28;20216;-90
2021/11/10 06:25:42;;;;;;;9.00;6.70;;;3.20;82.40;;;;;;5018255;28;20216;-90
2021/11/10 06:28:07;;;;;;;8.63;7.20;;;3.10;82.30;;;;;;5036942;28;20652;-89
2021/11/10 06:30:33;;;;;;;7.60;6.90;;;3.10;83.70;;;;;;5036134;28;20227;-90
2021/11/10 06:33:00;;;;;;;7.83;6.87;;;3.20;84.30;;;;;;5035899;28;20217;-90
2021/11/10 06:35:26;;;;;;;9.47;6.37;;;3.30;84.40;;;;;;5036988;28;20177;-90
2021/11/10 06:37:52;;;;;;;13.57;8.00;;;3.20;82.70;;;;;;5035094;28;20267;-90
2021/11/10 06:40:18;;;;;;;12.83;7.30;;;3.30;82.50;;;;;;5036947;28;20212;-90
2021/11/10 06:42:44;;;;;;;13.03;7.30;;;3.30;83.20;;;;;;5036778;28;20278;-90
2021/11/10 06:45:10;;;;;;;9.80;6.83;;;3.20;81.00;;;;;;5019469;28;20239;-90
2021/11/10 06:47:35;;;;;;;9.53;7.33;;;3.10;82.20;;;;;;5035541;28;20265;-90
2021/11/10 06:50:03;;;;;;;11.90;8.07;;;3.20;82.60;;;;;;5016410;28;20240;-90
2021/11/10 06:52:29;;;;;;;10.43;7.50;;;3.20;83.20;;;;;;5037045;28;20759;-90
2021/11/10 06:54:55;;;;;;;9.17;7.00;;;3.20;82.60;;;;;;5035605;28;20228;-89
2021/11/10 06:57:21;;;;;;;10.80;7.13;;;3.30;82.90;;;;;;5036500;28;20196;-90
2021/11/10 06:59:47;;;;;;;10.57;6.43;;;3.30;81.40;;;;;;5037461;28;20636;-90
2021/11/10 07:02:13;;;;;;;9.83;6.97;;;3.30;81.80;;;;;;5036197;28;20258;-89
2021/11/10 07:04:39;;;;;;;9.23;6.50;;;3.30;81.20;;;;;;5035894;28;20243;-89
2021/11/10 07:07:05;;;;;;;7.13;6.27;;;3.20;81.40;;;;;;5036546;28;20266;-89
2021/11/10 07:09:31;;;;;;;8.37;6.50;;;3.00;82.20;;;;;;5032792;28;20589;-89
2021/11/10 07:11:57;;;;;;;7.47;6.67;;;2.90;84.50;;;;;;5035604;28;20300;-90
2021/11/10 07:14:24;;;;;;;6.30;5.70;;;2.80;85.20;;;;;;5036196;28;20212;-88
2021/11/10 07:16:50;;;;;;;7.77;6.90;;;2.80;85.90;;;;;;5019277;28;20220;-90
2021/11/10 07:19:16;;;;;;;6.97;6.27;;;2.80;86.80;;;;;;5035928;28;20272;-89
2021/11/10 07:21:42;;;;;;;7.03;6.33;;;2.80;88.90;;;;;;5023234;28;20284;-89
2021/11/10 07:24:08;;;;;;;6.83;6.13;;;3.10;88.70;;;;;;5030890;28;20196;-89
2021/11/10 07:26:34;;;;;;;8.47;7.67;;;3.10;86.90;;;;;;5033955;28;20239;-90
2021/11/10 07:29:00;;;;;;;8.10;7.30;;;3.10;88.50;;;;;;5035399;28;20621;-89
2021/11/10 07:31:26;;;;;;;6.87;6.17;;;3.10;87.80;;;;;;5036305;28;20216;-90
2021/11/10 07:33:52;;;;;;;6.80;6.20;;;3.30;88.30;;;;;;5035514;28;20255;-89
2021/11/10 07:36:18;;;;;;;9.27;6.40;;;3.40;88.10;;;;;;5036451;28;20341;-89
2021/11/10 07:38:44;;;;;;;7.57;6.87;;;3.40;86.50;;;;;;5036286;28;20184;-89
2021/11/10 07:41:14;;;;;;;9.73;6.77;;;3.10;88.40;;;;;;5015391;28;20280;-88
2021/11/10 07:43:39;;;;;;;8.27;6.77;;;3.10;90.30;;;;;;5035019;28;20324;-90
2021/11/10 07:46:16;;;;;;;7.33;6.63;;;3.30;90.00;;;;;;5035382;28;20240;-88
2021/11/10 07:48:44;;;;;;;7.97;6.20;;;2.90;90.40;;;;;;5036260;28;20200;-89
2021/11/10 07:51:10;;;;;;;12.73;6.67;;;3.10;91.90;;;;;;5038691;28;20668;-88
2021/11/10 07:53:36;;;;;;;6.67;6.07;;;3.10;91.60;;;;;;5021645;28;20209;-91
2021/11/10 07:56:03;;;;;;;8.47;7.57;;;3.10;92.50;;;;;;5020782;28;20197;-88
2021/11/10 07:58:29;;;;;;;8.00;7.07;;;3.20;91.80;;;;;;5037117;28;20200;-88
2021/11/10 08:00:55;;;;;;;7.17;6.47;;;3.40;92.00;;;;;;5032828;28;20227;-88
2021/11/10 08:03:21;;;;;;;9.80;6.90;;;3.70;90.70;;;;;;5021679;28;20292;-89
2021/11/10 08:05:46;;;;;;;8.67;7.87;;;3.90;89.70;;;;;;5020121;28;20236;-89
2021/11/10 08:08:12;;;;;;;7.87;6.90;;;4.00;89.40;;;;;;5039072;28;20212;-89
2021/11/10 08:10:38;;;;;;;7.63;6.93;;;4.10;88.80;;;;;;5038339;28;20784;-89
2021/11/10 08:13:04;;;;;;;10.10;7.17;;;4.10;88.30;;;;;;5039595;28;20244;-89
2021/11/10 08:15:30;;;;;;;8.70;7.33;;;3.90;89.00;;;;;;5023716;28;20192;-89
2021/11/10 08:17:56;;;;;;;8.13;7.33;;;3.60;91.40;;;;;;5042406;28;20222;-90
2021/11/10 08:20:22;;;;;;;8.30;7.50;;;3.70;91.90;;;;;;5040596;28;20196;-88
2021/11/10 08:22:48;;;;;;;8.43;7.07;;;4.00;90.80;;;;;;5040330;28;20220;-89
2021/11/10 08:25:16;;;;;;;7.23;6.60;;;4.20;90.10;;;;;;5006937;28;20205;-90
2021/11/10 08:27:43;;;;;;;8.47;7.33;;;4.30;89.60;;;;;;5039496;28;20223;-89
2021/11/10 08:30:12;;;;;;;7.80;7.00;;;4.40;89.40;;;;;;5040614;28;20236;-89
2021/11/10 08:32:38;;;;;;;7.20;6.50;;;4.40;89.40;;;;;;5041229;28;20201;-89
2021/11/10 08:35:04;;;;;;;8.97;8.07;;;4.60;89.10;;;;;;5040616;28;20196;-89
2021/11/10 08:37:31;;;;;;;8.37;7.57;;;4.80;88.50;;;;;;5039395;28;20567;-88
2021/11/10 08:39:58;;;;;;;10.67;7.40;;;4.80;88.20;;;;;;5024651;28;20185;-89
2021/11/10 08:42:29;;;;;;;10.57;8.50;;;4.80;88.70;;;;;;5037442;28;20229;-89
2021/11/10 08:44:57;;;;;;;11.37;8.97;;;4.90;88.30;;;;;;5040528;28;20254;-89
2021/11/10 08:47:23;;;;;;;10.47;8.20;;;5.00;88.50;;;;;;5040062;28;20192;-89
2021/11/10 08:49:49;;;;;;;10.00;8.97;;;5.00;88.70;;;;;;5041203;28;20227;-90
2021/11/10 08:52:15;;;;;;;10.30;8.73;;;4.90;89.60;;;;;;5042186;28;20294;-90
2021/11/10 08:54:41;;;;;;;21.47;9.50;;;4.70;90.80;;;;;;5041828;28;20193;-88
2021/11/10 08:57:07;;;;;;;10.53;9.33;;;4.90;90.60;;;;;;5041419;28;20197;-90
2021/11/10 08:59:33;;;;;;;12.77;9.43;;;4.80;90.80;;;;;;5043091;28;20640;-89
2021/11/10 09:01:59;;;;;;;12.53;8.97;;;4.90;90.70;;;;;;5039867;28;20316;-90
2021/11/10 09:04:25;;;;;;;13.60;9.23;;;5.00;90.40;;;;;;5014837;28;20205;-89
2021/11/10 09:06:51;;;;;;;9.40;8.50;;;4.90;90.60;;;;;;5036497;28;20219;-90
2021/11/10 09:09:17;;;;;;;10.10;9.10;;;4.60;91.80;;;;;;5036743;28;20301;-89
2021/11/10 09:11:50;;;;;;;10.17;9.27;;;4.70;91.90;;;;;;5037513;28;20177;-90
2021/11/10 09:14:17;;;;;;;9.93;8.97;;;4.90;92.20;;;;;;5033998;28;20204;-89
2021/11/10 09:16:44;;;;;;;11.33;9.30;;;5.00;90.10;;;;;;5036766;28;20283;-90
2021/11/10 09:19:09;;;;;;;10.13;8.30;;;5.20;89.70;;;;;;5035469;28;20204;-90
2021/11/10 09:21:35;;;;;;;9.47;8.57;;;5.30;89.80;;;;;;5003944;28;20517;-89
2021/11/10 09:24:01;;;;;;;10.00;9.00;;;5.40;89.00;;;;;;5036318;28;20750;-89
2021/11/10 09:26:27;;;;;;;11.03;9.93;;;5.60;88.60;;;;;;5036434;28;20200;-89
2021/11/10 09:28:54;;;;;;;12.67;9.27;;;5.60;87.60;;;;;;5036121;28;20196;-90
2021/11/10 09:31:22;;;;;;;10.20;8.93;;;5.60;87.50;;;;;;5035972;28;20193;-90
2021/11/10 09:33:49;;;;;;;10.40;9.30;;;5.70;87.20;;;;;;5037123;28;20543;-89
2021/11/10 09:36:15;;;;;;;9.27;8.37;;;5.70;88.10;;;;;;5036000;28;20192;-89
2021/11/10 09:38:41;;;;;;;10.70;9.60;;;5.90;87.10;;;;;;5035785;28;20776;-88
2021/11/10 09:41:08;;;;;;;9.87;8.97;;;5.70;87.90;;;;;;5036132;28;20195;-87
2021/11/10 09:43:38;;;;;;;11.57;10.13;;;5.90;86.90;;;;;;5035108;28;20268;-90
2021/11/10 09:46:06;;;;;;;12.63;11.43;;;6.00;86.20;;;;;;5035963;28;20193;-89
2021/11/10 09:48:32;;;;;;;12.77;9.90;;;6.10;85.90;;;;;;5039828;28;20275;-88
2021/11/10 09:50:58;;;;;;;10.57;9.47;;;6.20;85.40;;;;;;5041655;28;20240;-89
2021/11/10 09:53:24;;;;;;;11.57;10.37;;;6.10;86.70;;;;;;5039399;28;20244;-90
2021/11/10 09:55:51;;;;;;;15.13;11.37;;;6.20;86.10;;;;;;5039253;28;20203;-90
2021/11/10 09:58:17;;;;;;;12.33;10.23;;;6.30;85.30;;;;;;5041417;28;20192;-89
2021/11/10 10:00:57;;;;;;;11.33;10.23;;;6.30;85.30;;;;;;5038631;28;20224;-88
2021/11/10 10:03:24;;;;;;;12.23;10.80;;;6.40;86.20;;;;;;5032495;28;20884;-90
2021/11/10 10:05:52;;;;;;;12.37;10.50;;;6.60;85.10;;;;;;5041707;28;20877;-89
2021/11/10 10:08:20;;;;;;;11.53;10.33;;;6.70;84.50;;;;;;5021596;28;20215;-89
2021/11/10 10:10:47;;;;;;;10.47;9.37;;;6.70;85.10;;;;;;5039579;28;20568;-89
2021/11/10 10:13:13;;;;;;;11.30;10.17;;;6.70;84.80;;;;;;5022826;28;20304;-90
2021/11/10 10:15:43;;;;;;;12.63;10.27;;;6.90;83.60;;;;;;5036922;28;20254;-90
2021/11/10 10:18:36;;;;;;;11.03;9.93;;;7.00;83.30;;;;;;5039313;28;20197;-90
2021/11/10 10:21:05;;;;;;;12.47;11.10;;;6.90;84.10;;;;;;5033882;28;20204;-90
2021/11/10 10:23:44;;;;;;;11.60;10.40;;;6.80;83.80;;;;;;5037373;28;20213;-90
2021/11/10 10:26:20;;;;;;;13.20;11.33;;;6.70;85.80;;;;;;5026990;28;20200;-89
2021/11/10 10:28:51;;;;;;;11.50;10.33;;;6.50;86.10;;;;;;5043753;28;20188;-88
2021/11/10 10:31:23;;;;;;;10.70;9.60;;;6.80;85.00;;;;;;5027747;28;20216;-89
2021/11/10 10:33:52;;;;;;;14.50;9.87;;;6.90;85.30;;;;;;5027477;28;20205;-90
2021/11/10 10:36:23;;;;;;;10.70;9.70;;;6.60;83.10;;;;;;5043085;28;20196;-90
2021/11/10 10:39:08;;;;;;;13.83;10.50;;;6.30;84.50;;;;;;5044380;28;20189;-89
2021/11/10 10:41:40;;;;;;;13.70;11.83;;;6.30;86.70;;;;;;5043893;28;20717;-89
2021/11/10 10:44:22;;;;;;;12.23;11.07;;;6.80;86.20;;;;;;5043679;28;20288;-90
2021/11/10 10:46:59;;;;;;;14.03;12.57;;;7.10;84.60;;;;;;5040556;28;20231;-89
2021/11/10 10:49:43;;;;;;;12.37;11.27;;;7.50;83.40;;;;;;5043789;28;20216;-90
2021/11/10 10:52:13;;;;;;;12.43;11.13;;;7.70;84.20;;;;;;5041892;28;20216;-89
2021/11/10 10:54:46;;;;;;;13.73;11.97;;;7.90;83.90;;;;;;5045917;28;20683;-89
2021/11/10 10:57:14;;;;;;;15.27;11.87;;;8.20;81.90;;;;;;5025225;28;20220;-88
2021/11/10 10:59:40;;;;;;;12.93;11.67;;;8.50;79.20;;;;;;5036834;28;20189;-89
2021/11/10 11:02:07;;;;;;;15.60;12.37;;;8.30;80.10;;;;;;5038415;28;20271;-90
2021/11/10 11:04:34;;;;;;;13.90;12.57;;;8.30;80.30;;;;;;5022536;28;20312;-89
2021/11/10 11:07:04;;;;;;;13.87;12.53;;;8.10;81.60;;;;;;5021922;28;20545;-90
2021/11/10 11:09:32;;;;;;;12.80;11.50;;;8.10;81.60;;;;;;5033862;28;20599;-89
2021/11/10 11:12:28;;;;;;;15.10;11.77;;;8.30;80.40;;;;;;5037169;28;20205;-88
2021/11/10 11:15:36;;;;;;;15.67;11.67;;;8.50;79.50;;;;;;5032447;28;20251;-90
2021/11/10 11:18:02;;;;;;;12.80;11.50;;;8.40;79.60;;;;;;5039175;28;20204;-90
2021/11/10 11:20:33;;;;;;;13.43;12.03;;;8.30;80.20;;;;;;5022924;28;20205;-90
2021/11/10 11:23:01;;;;;;;13.27;11.33;;;8.40;80.90;;;;;;5032937;28;20205;-89
2021/11/10 11:25:29;;;;;;;13.33;12.00;;;8.50;80.40;;;;;;5039997;28;20201;-89
2021/11/10 11:28:05;;;;;;;13.80;12.27;;;8.80;78.40;;;;;;5037833;28;20208;-89
2021/11/10 11:30:35;;;;;;;14.53;12.70;;;8.90;76.90;;;;;;5040382;28;20210;-90
2021/11/10 11:33:16;;;;;;;13.30;11.50;;;8.20;79.60;;;;;;5023034;28;20212;-89
2021/11/10 11:35:46;;;;;;;11.97;10.73;;;8.30;80.60;;;;;;5036964;28;20200;-90
2021/11/10 11:38:20;;;;;;;13.53;11.77;;;8.70;77.70;;;;;;5038684;28;20192;-90
2021/11/10 11:40:48;;;;;;;12.60;11.37;;;8.90;76.70;;;;;;5039623;28;20185;-88
2021/11/10 11:43:17;;;;;;;14.00;12.07;;;8.80;76.70;;;;;;5039507;28;20216;-89
2021/11/10 11:45:45;;;;;;;12.90;11.60;;;8.70;77.40;;;;;;5039436;28;20725;-89
2021/11/10 11:48:12;;;;;;;13.80;12.33;;;8.20;79.30;;;;;;5023328;28;20193;-89
2021/11/10 11:50:41;;;;;;;13.90;12.40;;;8.10;81.40;;;;;;5039024;28;20224;-89
2021/11/10 11:53:08;;;;;;;13.10;11.80;;;8.20;81.00;;;;;;5037362;28;20197;-90
2021/11/10 11:56:03;;;;;;;13.50;11.70;;;8.30;81.10;;;;;;5039574;28;20192;-88
2021/11/10 11:58:35;;;;;;;15.67;12.70;;;8.40;80.40;;;;;;5030350;28;20200;-90
2021/11/10 12:01:12;;;;;;;13.23;12.03;;;8.50;78.70;;;;;;5040249;28;20197;-89
2021/11/10 12:03:44;;;;;;;15.40;12.97;;;8.50;79.00;;;;;;5022934;28;20626;-89
2021/11/10 12:06:10;;;;;;;12.47;11.23;;;8.40;78.90;;;;;;5038789;28;20268;-90
2021/11/10 12:08:49;;;;;;;15.97;12.50;;;8.40;78.60;;;;;;5040354;28;20215;-90
2021/11/10 12:11:40;;;;;;;12.40;11.20;;;8.20;79.70;;;;;;5035754;28;20291;-91
2021/11/10 12:14:12;;;;;;;14.00;11.90;;;8.10;80.50;;;;;;5038195;28;20192;-90
2021/11/10 12:17:05;;;;;;;14.73;12.10;;;7.90;81.80;;;;;;5038594;28;20245;-90
2021/11/10 12:19:53;;;;;;;18.63;16.47;;;7.70;81.50;;;;;;5031925;28;20214;-90
2021/11/10 12:22:23;;;;;;;17.23;12.37;;;8.00;80.90;;;;;;5020857;28;20236;-90
2021/11/10 12:24:55;;;;;;;13.23;11.40;;;8.10;81.30;;;;;;5037668;28;20212;-90
2021/11/10 12:27:37;;;;;;;12.30;11.20;;;8.40;78.90;;;;;;5020232;28;20212;-90
2021/11/10 12:30:28;;;;;;;22.23;12.93;;;8.50;78.50;;;;;;5041102;28;20205;-89
2021/11/10 12:33:04;;;;;;;14.53;13.03;;;8.70;77.50;;;;;;5039406;28;20278;-91
2021/11/10 12:36:00;;;;;;;14.37;12.67;;;8.60;78.30;;;;;;5034088;28;20197;-90
2021/11/10 12:38:28;;;;;;;14.30;11.53;;;8.30;79.20;;;;;;5009645;28;20475;-87
2021/11/10 12:41:02;;;;;;;15.07;13.57;;;8.20;80.90;;;;;;5036990;28;20251;-90
2021/11/10 12:43:40;;;;;;;13.63;12.20;;;7.90;81.10;;;;;;5022148;28;20223;-90
2021/11/10 12:46:17;;;;;;;18.00;11.87;;;7.80;82.10;;;;;;5040353;28;20197;-91
2021/11/10 12:48:45;;;;;;;13.87;11.30;;;7.90;83.00;;;;;;5034613;28;20207;-90
2021/11/10 12:51:15;;;;;;;19.00;16.53;;;8.20;79.70;;;;;;5021773;28;20240;-90
2021/11/10 12:53:47;;;;;;;13.40;11.03;;;8.40;78.90;;;;;;5040268;28;20200;-90
2021/11/10 12:56:14;;;;;;;16.63;13.03;;;8.50;78.00;;;;;;5042224;28;20216;-90